ADDS METAR Data INFO
IDs: Format: Raw Decoded Include TAF

Data at: 2007 UTC 19 Oct 2017

PADL 191956Z VRB05KT 10SM CLR 01/M06 A2954 RMK AO2 SLP010 T00111061
PADL 191856Z 00000KT 10SM CLR M01/M06 A2956 RMK AO2 SLP014 T10111056
PADL 191756Z 00000KT 10SM CLR M02/M06 A2956 RMK AO2 SLP015 60000 T10221061 11017 21033 53002
PADL 191656Z 00000KT 10SM CLR M02/M06 A2955 RMK AO2 SNB01E55 SLP013 P0000 T10171056
PADL 191556Z 00000KT 10SM CLR M02/M06 A2956 RMK AO2 SNE1459 SLP014 P0000 T10221056
PADL 191256Z AUTO VRB03KT 10SM CLR M02/M05 A2956 RMK AO2 SLP015 T10221050 FZRANO
PADL 191156Z AUTO VRB03KT 10SM CLR M02/M05 A2956 RMK AO2 SLP015 T10171050 11006 21017 58002 FZRANO
PADL 191056Z AUTO VRB03KT 10SM CLR M02/M06 A2956 RMK AO2 SLP016 T10171056 FZRANO
PADL 190956Z AUTO VRB04KT 10SM CLR M01/M06 A2957 RMK AO2 SLP017 T10111056 FZRANO
PADL 190856Z AUTO 00000KT 10SM SCT120 M01/M06 A2957 RMK AO2 SLP017 T10111056 400561039 53007 FZRANO
PADL 190756Z AUTO 29004KT 10SM SCT120 M01/M06 A2956 RMK AO2 SLP014 T10061056 FZRANO
PADL 190656Z AUTO VRB03KT 10SM BKN120 M01/M05 A2955 RMK AO2 SLP013 T10061050 FZRANO
PADL 190556Z AUTO 00000KT 10SM CLR M01/M05 A2954 RMK AO2 SLP010 T10111050 10056 21011 51013 FZRANO
PADL 190456Z 00000KT 10SM CLR M01/M05 A2954 RMK AO2 SLP007 T10061050
PADL 190356Z VRB03KT 10SM CLR 01/M06 A2952 RMK AO2 SLP003 T00061056
PADL 190256Z 26010G15KT 10SM FEW050 02/M06 A2951 RMK AO2 SLP997 T00171056 55002
PADL 190156Z 30007G14KT 10SM SCT055 BKN120 04/M06 A2950 RMK AO2 SLP996 T00391061
PADL 190056Z 32004KT 10SM CLR 03/M07 A2951 RMK AO2 SLP999 T00281067
PADL 182356Z VRB06KT 10SM FEW070 06/M05 A2951 RMK AO2 SLP999 T00561050 10056 21022 56010
PADL 182256Z VRB04KT 10SM CLR 05/M06 A2952 RMK AO2 SLP002 T00501056
PADL 182156Z 28007KT 230V300 10SM CLR 04/M04 A2953 RMK AO2 SLP004 T00441044
PADL 182056Z VRB04KT 10SM CLR 04/M04 A2954 RMK AO2 SLP009 T00391039 51006
PADL 181956Z VRB04KT 10SM CLR 02/M03 A2954 RMK AO2 SLP009 T00171033
PADL 181856Z VRB03KT 10SM FEW060 M01/M04 A2953 RMK AO2 SLP007 T10061044
PADL 181756Z VRB03KT 10SM FEW060 M02/M05 A2952 RMK AO2 SLP003 T10221050 11022 21039 51003
PADL 181656Z VRB03KT 10SM CLR M03/M06 A2952 RMK AO2 SLP002 T10331056
PADL 181556Z 27003KT 10SM CLR M04/M06 A2952 RMK AO2 SLP002 T10391056
PADL 181456Z 00000KT 10SM CLR M03/M05 A2951 RMK AO2 SLP000 T10331050 50000
PADL 181356Z 00000KT 10SM CLR M03/M05 A2951 RMK AO2 SLP000 T10331050
PADL 181256Z 27003KT 10SM CLR M03/M05 A2952 RMK AO2 SLP001 T10281050
PADL 181156Z 00000KT 10SM CLR M03/M05 A2951 RMK AO2 SLP999 7//// T10281050 10006 21028 51007
PADL 181056Z 34005KT 10SM CLR M02/M05 A2951 RMK AO2 SLP999 T10171050
PADL 180956Z 35010KT 10SM CLR M01/M04 A2950 RMK AO2 SLP995 T10061044
PADL 180856Z 35010KT 10SM CLR M01/M05 A2949 RMK AO2 SLP992 T10111050 400281011 53018